createdAt,value
2022-10-23T00:01:14.885Z,55.72
2022-10-23T00:03:42.839Z,55.65
2022-10-23T00:06:10.717Z,55.66
2022-10-23T00:08:38.616Z,56.06
2022-10-23T00:11:08.853Z,56.07
2022-10-23T00:13:37.034Z,55.88
2022-10-23T00:16:05.378Z,56.46
2022-10-23T00:18:34.671Z,57.40
2022-10-23T00:21:02.599Z,57.90
2022-10-23T00:23:30.377Z,58.01
2022-10-23T00:25:58.131Z,58.46
2022-10-23T00:28:25.863Z,58.71
2022-10-23T00:30:53.888Z,59.08
2022-10-23T00:33:21.817Z,58.16
2022-10-23T00:35:50.901Z,58.48
2022-10-23T00:38:18.646Z,58.11
2022-10-23T00:40:47.204Z,57.95
2022-10-23T00:43:19.948Z,58.07
2022-10-23T00:45:48.044Z,58.05
2022-10-23T00:48:16.278Z,57.85
2022-10-23T00:50:44.777Z,57.75
2022-10-23T00:53:14.663Z,57.72
2022-10-23T00:55:46.725Z,58.07
2022-10-23T00:58:15.042Z,57.54
2022-10-23T01:00:45.678Z,57.55
2022-10-23T01:03:13.875Z,57.69
2022-10-23T01:08:23.358Z,57.34
2022-10-23T01:10:55.475Z,56.97
2022-10-23T01:13:32.182Z,57.32
2022-10-23T01:16:03.648Z,56.91
2022-10-23T01:18:40.446Z,56.67
2022-10-23T01:21:11.277Z,57.23
2022-10-23T01:24:08.967Z,56.31
2022-10-23T01:26:45.594Z,57.53
2022-10-23T01:29:21.087Z,58.33
2022-10-23T01:31:53.001Z,57.07
2022-10-23T01:34:23.904Z,56.38
2022-10-23T01:36:53.171Z,56.12
2022-10-23T01:39:23.554Z,56.64
2022-10-23T01:41:55.035Z,59.64
2022-10-23T01:44:35.578Z,60.67
2022-10-23T01:47:05.978Z,60.66
2022-10-23T01:49:37.621Z,62.08
2022-10-23T01:52:09.992Z,60.89
2022-10-23T01:54:41.924Z,60.19
2022-10-23T01:57:12.253Z,60.91
2022-10-23T01:59:46.214Z,61.13
2022-10-23T02:02:14.706Z,61.52
2022-10-23T02:04:49.193Z,59.61
2022-10-23T02:07:17.006Z,58.18
2022-10-23T02:09:44.863Z,58.22
2022-10-23T02:12:17.550Z,57.96
2022-10-23T02:14:52.989Z,56.96
2022-10-23T02:17:25.498Z,56.24
2022-10-23T02:19:58.865Z,56.58
2022-10-23T02:22:29.088Z,56.79
2022-10-23T02:25:01.192Z,56.25
2022-10-23T02:27:37.358Z,56.38
2022-10-23T02:30:12.366Z,56.24
2022-10-23T02:32:43.512Z,56.87
2022-10-23T02:35:12.904Z,56.50
2022-10-23T02:37:41.067Z,56.50
2022-10-23T02:40:10.934Z,56.50
2022-10-23T02:42:48.144Z,56.49
2022-10-23T02:45:20.924Z,56.57
2022-10-23T02:47:54.329Z,56.65
2022-10-23T02:50:27.846Z,56.75
2022-10-23T02:53:06.188Z,57.03
2022-10-23T02:55:43.946Z,57.18
2022-10-23T02:58:17.342Z,57.12
2022-10-23T03:00:51.623Z,57.32
2022-10-23T03:03:22.545Z,57.61
2022-10-23T03:05:50.530Z,57.10
2022-10-23T03:08:18.312Z,56.46
2022-10-23T03:10:46.106Z,56.67
2022-10-23T03:13:14.085Z,56.39
2022-10-23T03:15:43.964Z,56.77
2022-10-23T03:18:17.105Z,56.78
2022-10-23T03:20:51.084Z,56.74
2022-10-23T03:23:22.599Z,56.71
2022-10-23T03:25:50.393Z,56.35
2022-10-23T03:28:31.866Z,56.86
2022-10-23T03:31:02.089Z,57.10
2022-10-23T03:33:31.717Z,57.28
2022-10-23T03:36:08.124Z,57.29
2022-10-23T03:38:36.386Z,57.36
2022-10-23T03:41:05.509Z,57.28
2022-10-23T03:43:33.313Z,57.77
2022-10-23T03:46:02.129Z,57.76
2022-10-23T03:48:32.625Z,57.60
2022-10-23T03:51:00.445Z,58.36
2022-10-23T03:53:28.255Z,58.43
2022-10-23T03:55:55.986Z,58.03
2022-10-23T03:58:23.741Z,57.75
2022-10-23T04:00:51.831Z,58.15
2022-10-23T04:03:19.636Z,57.88
2022-10-23T04:05:52.123Z,57.66
2022-10-23T04:08:22.599Z,58.27
2022-10-23T04:10:53.930Z,58.21
2022-10-23T04:13:27.891Z,58.46
2022-10-23T04:15:55.688Z,58.18
2022-10-23T04:18:24.556Z,57.98
2022-10-23T04:20:54.384Z,58.08
2022-10-23T04:23:22.530Z,58.03
2022-10-23T04:25:50.408Z,57.57
2022-10-23T04:28:18.179Z,57.35
2022-10-23T04:30:46.755Z,57.30
2022-10-23T04:33:14.533Z,57.51
2022-10-23T04:35:42.449Z,57.30
2022-10-23T04:38:13.151Z,57.51
2022-10-23T04:40:40.940Z,57.85
2022-10-23T04:43:08.717Z,57.87
2022-10-23T04:45:39.264Z,57.70
2022-10-23T04:48:07.354Z,58.16
2022-10-23T04:50:58.410Z,57.88
2022-10-23T04:53:50.433Z,57.71
2022-10-23T04:56:36.719Z,57.83
2022-10-23T04:59:08.608Z,58.03
2022-10-23T05:01:38.014Z,58.13
2022-10-23T05:04:08.016Z,57.84
2022-10-23T05:06:48.200Z,57.49
2022-10-23T05:09:29.989Z,57.25
2022-10-23T05:12:08.432Z,57.14
2022-10-23T05:14:36.486Z,57.59
2022-10-23T05:17:08.452Z,57.35
2022-10-23T05:19:39.809Z,56.79
2022-10-23T05:22:08.093Z,56.71
2022-10-23T05:24:54.569Z,56.18
2022-10-23T05:27:25.792Z,56.34
2022-10-23T05:29:55.482Z,55.85
2022-10-23T05:32:27.424Z,55.81
2022-10-23T05:34:55.634Z,55.35
2022-10-23T05:37:27.015Z,55.46
2022-10-23T05:40:10.310Z,55.63
2022-10-23T05:42:41.647Z,56.55
2022-10-23T05:45:12.080Z,57.12
2022-10-23T05:48:11.414Z,56.77
2022-10-23T05:51:10.092Z,56.68
2022-10-23T05:53:46.953Z,56.15
2022-10-23T05:56:33.155Z,55.58
2022-10-23T05:59:11.107Z,56.10
2022-10-23T06:01:49.974Z,55.97
2022-10-23T06:04:27.753Z,55.94
2022-10-23T06:07:14.126Z,55.71
2022-10-23T06:09:45.270Z,55.55
2022-10-23T06:12:15.285Z,55.84
2022-10-23T06:14:45.945Z,55.55
2022-10-23T06:17:13.733Z,55.56
2022-10-23T06:19:45.528Z,55.57
2022-10-23T06:22:16.253Z,55.71
2022-10-23T06:24:51.093Z,56.02
2022-10-23T06:27:27.305Z,55.98
2022-10-23T06:29:56.268Z,56.08
2022-10-23T06:32:24.033Z,55.96
2022-10-23T06:35:05.991Z,55.86
2022-10-23T06:37:34.662Z,55.90
2022-10-23T06:40:23.690Z,55.70
2022-10-23T06:43:05.227Z,55.55
2022-10-23T06:46:06.142Z,55.39
2022-10-23T06:49:02.994Z,55.28
2022-10-23T06:51:34.423Z,55.41
2022-10-23T06:54:02.371Z,55.41
2022-10-23T06:56:53.294Z,55.30
2022-10-23T06:59:33.847Z,55.04
2022-10-23T07:02:01.765Z,54.43
2022-10-23T07:04:30.786Z,54.07
2022-10-23T07:06:59.250Z,53.85
2022-10-23T07:09:36.733Z,53.49
2022-10-23T07:12:22.897Z,53.42
2022-10-23T07:15:00.442Z,53.30
2022-10-23T07:17:29.482Z,53.25
2022-10-23T07:19:57.317Z,52.94
2022-10-23T07:22:25.623Z,52.96
2022-10-23T07:25:06.713Z,52.18
2022-10-23T07:27:39.363Z,52.10
2022-10-23T07:30:12.312Z,51.98
2022-10-23T07:32:46.677Z,52.03
2022-10-23T07:35:35.590Z,52.16
2022-10-23T07:38:10.162Z,51.55
2022-10-23T07:40:42.428Z,51.57
2022-10-23T07:43:11.855Z,51.82
2022-10-23T07:45:41.212Z,51.86
2022-10-23T07:48:17.630Z,51.57
2022-10-23T07:51:16.500Z,51.43
2022-10-23T07:53:47.257Z,50.87
2022-10-23T07:56:31.380Z,50.87
2022-10-23T07:59:22.074Z,50.78
2022-10-23T08:01:56.341Z,50.75
2022-10-23T08:04:29.034Z,50.49
2022-10-23T08:07:03.511Z,49.98
2022-10-23T08:09:38.075Z,48.99
2022-10-23T08:12:06.398Z,49.02
2022-10-23T08:14:34.339Z,48.85
2022-10-23T08:17:05.070Z,48.72
2022-10-23T08:19:56.436Z,48.88
2022-10-23T08:22:27.181Z,48.34
2022-10-23T08:24:55.402Z,48.01
2022-10-23T08:27:23.174Z,47.82
2022-10-23T08:29:51.093Z,47.11
2022-10-23T08:32:20.237Z,47.67
2022-10-23T08:35:01.014Z,46.42
2022-10-23T08:37:32.002Z,46.01
2022-10-23T08:39:59.958Z,45.64
2022-10-23T08:42:49.494Z,45.76
2022-10-23T08:45:28.626Z,44.99
2022-10-23T08:48:14.043Z,44.93
2022-10-23T08:51:19.239Z,43.42
2022-10-23T08:53:51.937Z,43.24
2022-10-23T08:56:24.208Z,43.35
2022-10-23T08:58:54.889Z,42.93
2022-10-23T09:01:33.689Z,42.21
2022-10-23T09:04:03.247Z,42.27
2022-10-23T09:06:37.861Z,42.19
2022-10-23T09:09:21.621Z,41.82
2022-10-23T09:11:54.755Z,41.50
2022-10-23T09:14:42.178Z,40.83
2022-10-23T09:17:17.186Z,40.60
2022-10-23T09:19:47.100Z,40.35
2022-10-23T09:22:15.079Z,41.08
2022-10-23T09:24:43.971Z,41.64
2022-10-23T09:27:16.893Z,41.31
2022-10-23T09:29:49.523Z,40.71
2022-10-23T09:32:17.346Z,39.91
2022-10-23T09:34:54.180Z,41.01
2022-10-23T09:37:25.376Z,41.03
2022-10-23T09:40:03.481Z,40.37
2022-10-23T09:42:31.355Z,40.72
2022-10-23T09:44:59.152Z,41.04
2022-10-23T09:47:28.570Z,41.57
2022-10-23T09:49:58.739Z,42.33
2022-10-23T09:52:30.319Z,42.38
2022-10-23T09:54:59.816Z,43.61
2022-10-23T09:57:31.175Z,42.44
2022-10-23T10:00:02.278Z,41.89
2022-10-23T10:02:39.620Z,42.17
2022-10-23T10:05:28.905Z,42.30
2022-10-23T10:08:03.161Z,42.36
2022-10-23T10:10:36.698Z,42.32
2022-10-23T10:13:07.051Z,41.57
2022-10-23T10:15:39.447Z,41.48
2022-10-23T10:18:16.155Z,41.34
2022-10-23T10:21:00.917Z,40.23
2022-10-23T10:23:34.635Z,39.22
2022-10-23T10:26:12.340Z,38.97
2022-10-23T10:28:50.885Z,39.23
2022-10-23T10:31:23.714Z,39.39
2022-10-23T10:33:59.288Z,38.95
2022-10-23T10:36:41.661Z,39.12
2022-10-23T10:39:13.591Z,39.47
2022-10-23T10:41:51.769Z,39.21
2022-10-23T10:44:33.535Z,40.38
2022-10-23T10:47:08.007Z,40.51
2022-10-23T10:49:41.888Z,40.11
2022-10-23T10:52:46.682Z,39.14
2022-10-23T10:55:20.961Z,39.67
2022-10-23T10:57:51.889Z,38.87
2022-10-23T11:00:21.572Z,39.48
2022-10-23T11:02:51.203Z,38.54
2022-10-23T11:05:24.856Z,39.30
2022-10-23T11:08:01.093Z,39.46
2022-10-23T11:10:29.433Z,38.85
2022-10-23T11:12:58.075Z,38.27
2022-10-23T11:15:29.329Z,38.58
2022-10-23T11:18:00.095Z,38.67
2022-10-23T11:20:53.839Z,38.62
2022-10-23T11:23:40.897Z,38.41
2022-10-23T11:26:20.124Z,38.72
2022-10-23T11:29:04.545Z,39.51
2022-10-23T11:31:39.830Z,38.69
2022-10-23T11:34:35.759Z,38.04
2022-10-23T11:37:04.786Z,37.98
2022-10-23T11:39:35.237Z,38.75
2022-10-23T11:42:16.061Z,38.73
2022-10-23T11:44:45.347Z,37.89
2022-10-23T11:47:34.994Z,38.17
2022-10-23T11:50:26.860Z,38.31
2022-10-23T11:53:15.085Z,39.18
2022-10-23T11:56:00.744Z,38.62
2022-10-23T11:58:32.510Z,37.54
2022-10-23T12:01:03.986Z,37.61
2022-10-23T12:03:41.879Z,37.77
2022-10-23T12:06:21.176Z,37.59
2022-10-23T12:08:52.323Z,37.92
2022-10-23T12:11:43.570Z,39.72
2022-10-23T12:14:30.447Z,39.75
2022-10-23T12:16:58.520Z,41.09
2022-10-23T12:19:28.064Z,41.25
2022-10-23T12:21:58.516Z,41.62
2022-10-23T12:24:54.479Z,41.06
2022-10-23T12:27:32.590Z,41.38
2022-10-23T12:30:17.368Z,41.88
2022-10-23T12:33:08.583Z,41.44
2022-10-23T12:35:50.224Z,41.55
2022-10-23T12:38:19.953Z,40.23
2022-10-23T12:40:52.408Z,39.03
2022-10-23T12:43:28.086Z,38.37
2022-10-23T12:45:57.437Z,38.27
2022-10-23T12:48:25.737Z,38.05
2022-10-23T12:50:55.736Z,38.19
2022-10-23T12:53:24.674Z,38.99
2022-10-23T12:55:55.533Z,37.47
2022-10-23T12:58:27.255Z,38.70
2022-10-23T13:00:59.735Z,38.19
2022-10-23T13:03:29.082Z,36.49
2022-10-23T13:05:59.427Z,36.56
2022-10-23T13:08:32.065Z,37.86
2022-10-23T13:11:22.752Z,38.83
2022-10-23T13:13:53.878Z,39.14
2022-10-23T13:16:23.540Z,39.00
2022-10-23T13:18:52.074Z,38.89
2022-10-23T13:21:23.071Z,39.01
2022-10-23T13:23:52.972Z,39.66
2022-10-23T13:26:34.053Z,39.79
2022-10-23T13:29:08.697Z,40.08
2022-10-23T13:31:37.374Z,39.36
2022-10-23T13:34:13.976Z,39.92
2022-10-23T13:36:53.628Z,40.03
2022-10-23T13:39:24.684Z,41.20
2022-10-23T13:41:52.399Z,41.91
2022-10-23T13:44:23.531Z,42.03
2022-10-23T13:46:53.001Z,41.48
2022-10-23T13:49:21.108Z,40.98
2022-10-23T13:51:52.344Z,40.11
2022-10-23T13:54:21.690Z,40.40
2022-10-23T13:56:49.645Z,40.25
2022-10-23T13:59:18.090Z,40.46
2022-10-23T14:01:48.890Z,40.37
2022-10-23T14:04:18.363Z,39.71
2022-10-23T14:06:46.206Z,39.90
2022-10-23T14:09:15.407Z,40.45
2022-10-23T14:11:43.431Z,41.19
2022-10-23T14:14:11.480Z,41.29
2022-10-23T14:16:39.282Z,40.60
2022-10-23T14:19:08.972Z,40.65
2022-10-23T14:21:36.741Z,41.21
2022-10-23T14:24:04.577Z,40.98
2022-10-23T14:26:32.820Z,41.23
2022-10-23T14:29:04.490Z,41.74
2022-10-23T14:31:36.732Z,42.48
2022-10-23T14:34:04.497Z,42.62
2022-10-23T14:36:43.229Z,41.80
2022-10-23T14:39:18.531Z,42.92
2022-10-23T14:41:46.233Z,43.12
2022-10-23T14:44:14.173Z,43.12
2022-10-23T14:46:41.917Z,43.51
2022-10-23T14:49:09.662Z,43.41
2022-10-23T14:51:38.833Z,43.51
2022-10-23T14:54:08.012Z,43.62
2022-10-23T14:56:37.951Z,43.03
2022-10-23T14:59:06.535Z,42.28
2022-10-23T15:01:36.397Z,43.77
2022-10-23T15:04:04.613Z,43.58
2022-10-23T15:06:32.703Z,42.89
2022-10-23T15:09:02.194Z,43.68
2022-10-23T15:11:29.975Z,43.09
2022-10-23T15:14:00.154Z,43.75
2022-10-23T15:16:28.081Z,43.55
2022-10-23T15:18:55.873Z,43.44
2022-10-23T15:21:23.876Z,43.80
2022-10-23T15:23:52.951Z,43.38
2022-10-23T15:26:23.639Z,42.89
2022-10-23T15:28:54.311Z,43.19
2022-10-23T15:31:41.401Z,44.49
2022-10-23T15:34:10.190Z,44.87
2022-10-23T15:36:37.992Z,45.36
2022-10-23T15:39:08.685Z,45.01
2022-10-23T15:41:40.148Z,46.40
2022-10-23T15:44:10.373Z,46.05
2022-10-23T15:46:38.193Z,47.30
2022-10-23T15:49:08.373Z,47.74
2022-10-23T15:51:37.585Z,47.84
2022-10-23T15:54:05.583Z,48.74
2022-10-23T15:56:33.552Z,50.01
2022-10-23T15:59:02.734Z,49.80
2022-10-23T16:01:30.782Z,50.04
2022-10-23T16:03:58.552Z,50.88
2022-10-23T16:06:26.454Z,50.84
2022-10-23T16:11:28.406Z,52.22
2022-10-23T16:13:56.818Z,53.25
2022-10-23T16:16:26.262Z,54.32
2022-10-23T16:18:54.119Z,55.50
2022-10-23T16:21:23.107Z,56.17
2022-10-23T16:23:51.646Z,55.72
2022-10-23T16:26:19.980Z,55.92
2022-10-23T16:28:48.126Z,55.17
2022-10-23T16:31:20.313Z,55.43
2022-10-23T16:33:50.672Z,55.12
2022-10-23T16:36:19.762Z,54.98
2022-10-23T16:39:06.422Z,54.59
2022-10-23T16:41:54.489Z,53.80
2022-10-23T16:44:25.101Z,53.48
2022-10-23T16:47:00.410Z,53.94
2022-10-23T16:49:32.074Z,53.52
2022-10-23T16:51:59.864Z,53.71
2022-10-23T16:54:27.596Z,54.20
2022-10-23T16:56:55.358Z,53.99
2022-10-23T16:59:23.237Z,55.30
2022-10-23T17:01:51.065Z,56.08
2022-10-23T17:04:18.962Z,57.62
2022-10-23T17:06:48.128Z,58.55
2022-10-23T17:09:16.968Z,59.83
2022-10-23T17:11:45.933Z,61.12
2022-10-23T17:14:17.384Z,62.00
2022-10-23T17:16:47.527Z,64.26
2022-10-23T17:19:39.750Z,64.53
2022-10-23T17:22:10.321Z,65.91
2022-10-23T17:24:38.309Z,67.72
2022-10-23T17:27:06.496Z,67.85
2022-10-23T17:29:34.319Z,68.35
2022-10-23T17:32:02.171Z,69.16
2022-10-23T17:34:29.911Z,69.73
2022-10-23T17:36:57.742Z,70.68
2022-10-23T17:39:28.929Z,72.36
2022-10-23T17:41:57.329Z,73.91
2022-10-23T17:44:25.242Z,73.07
2022-10-23T17:46:54.478Z,72.12
2022-10-23T17:49:22.891Z,73.52
2022-10-23T17:51:52.649Z,55.24
2022-10-23T17:54:20.492Z,47.19
2022-10-23T17:56:49.661Z,55.23
2022-10-23T17:59:19.226Z,52.40
2022-10-23T18:01:48.282Z,55.27
2022-10-23T18:04:18.032Z,58.23
2022-10-23T18:06:48.324Z,56.60
2022-10-23T18:09:16.464Z,57.41
2022-10-23T18:11:48.154Z,60.40
2022-10-23T18:14:18.740Z,59.24
2022-10-23T18:16:46.733Z,58.42
2022-10-23T18:19:14.678Z,58.50
2022-10-23T18:21:42.484Z,58.69
2022-10-23T18:24:10.391Z,51.46
2022-10-23T18:26:39.166Z,49.15
2022-10-23T18:29:08.594Z,48.72
2022-10-23T18:31:38.548Z,49.30
2022-10-23T18:34:08.485Z,51.39
2022-10-23T18:36:38.229Z,51.69
2022-10-23T18:39:07.298Z,53.72
2022-10-23T18:41:36.352Z,54.05
2022-10-23T18:44:04.732Z,55.30
2022-10-23T18:46:32.566Z,55.16
2022-10-23T18:49:02.065Z,53.80
2022-10-23T18:51:34.987Z,55.06
2022-10-23T18:54:03.380Z,54.24
2022-10-23T18:56:31.256Z,56.16
2022-10-23T18:59:01.682Z,54.60
2022-10-23T19:01:30.902Z,53.94
2022-10-23T19:04:00.329Z,54.46
2022-10-23T19:06:30.353Z,52.67
2022-10-23T19:08:58.886Z,53.28
2022-10-23T19:11:28.409Z,51.32
2022-10-23T19:13:56.282Z,52.87
2022-10-23T19:16:27.672Z,50.48
2022-10-23T19:18:57.888Z,51.16
2022-10-23T19:21:31.271Z,51.36
2022-10-23T19:24:01.163Z,48.56
2022-10-23T19:26:31.224Z,50.57
2022-10-23T19:28:59.181Z,53.92
2022-10-23T19:31:27.089Z,53.23
2022-10-23T19:33:54.868Z,51.11
2022-10-23T19:36:23.661Z,51.31
2022-10-23T19:38:53.180Z,52.31
2022-10-23T19:41:20.934Z,52.89
2022-10-23T19:43:48.660Z,53.25
2022-10-23T19:46:16.460Z,52.58
2022-10-23T19:48:44.949Z,53.07
2022-10-23T19:51:13.895Z,51.93
2022-10-23T19:53:42.604Z,54.08
2022-10-23T19:56:13.585Z,53.13
2022-10-23T19:58:41.906Z,53.37
2022-10-23T20:01:11.724Z,51.57
2022-10-23T20:03:40.002Z,51.42
2022-10-23T20:06:10.152Z,52.49
2022-10-23T20:08:37.990Z,51.52
2022-10-23T20:11:05.983Z,54.31
2022-10-23T20:13:35.126Z,51.06
2022-10-23T20:16:02.862Z,51.49
2022-10-23T20:18:30.799Z,51.40
2022-10-23T20:20:58.514Z,50.73
2022-10-23T20:23:26.772Z,52.51
2022-10-23T20:25:54.517Z,53.06
2022-10-23T20:28:22.318Z,52.00
2022-10-23T20:30:51.403Z,50.13
2022-10-23T20:33:19.130Z,49.71
2022-10-23T20:35:47.002Z,49.81
2022-10-23T20:38:14.841Z,50.09
2022-10-23T20:40:42.603Z,52.00
2022-10-23T20:43:10.334Z,51.00
2022-10-23T20:45:38.096Z,50.85
2022-10-23T20:48:07.912Z,49.79
2022-10-23T20:50:36.036Z,50.77
2022-10-23T20:53:03.790Z,50.90
2022-10-23T20:55:31.543Z,51.50
2022-10-23T20:57:59.308Z,52.25
2022-10-23T21:00:27.374Z,51.81
2022-10-23T21:02:55.371Z,52.65
2022-10-23T21:05:24.781Z,51.88
2022-10-23T21:07:52.489Z,52.46
2022-10-23T21:10:20.300Z,52.01
2022-10-23T21:12:48.012Z,53.40
2022-10-23T21:15:15.790Z,52.89
2022-10-23T21:17:43.565Z,52.03
2022-10-23T21:20:11.738Z,50.87
2022-10-23T21:22:41.077Z,51.23
2022-10-23T21:25:09.815Z,50.73
2022-10-23T21:27:37.608Z,48.64
2022-10-23T21:30:06.490Z,50.20
2022-10-23T21:32:34.247Z,49.63
2022-10-23T21:35:02.060Z,48.44
2022-10-23T21:37:29.765Z,48.89
2022-10-23T21:39:58.913Z,48.15
2022-10-23T21:42:26.757Z,48.67
2022-10-23T21:44:54.544Z,48.97
2022-10-23T21:47:22.263Z,48.59
2022-10-23T21:49:50.001Z,49.63
2022-10-23T21:52:19.800Z,48.52
2022-10-23T21:54:52.540Z,47.84
2022-10-23T21:57:21.939Z,50.14
2022-10-23T21:59:49.715Z,51.23
2022-10-23T22:02:17.715Z,49.51
2022-10-23T22:04:45.551Z,48.75
2022-10-23T22:07:14.880Z,49.46
2022-10-23T22:09:42.972Z,49.84
2022-10-23T22:12:11.531Z,49.40
2022-10-23T22:14:40.788Z,48.00
2022-10-23T22:17:08.539Z,48.65
2022-10-23T22:19:36.872Z,50.26
2022-10-23T22:22:04.653Z,50.00
2022-10-23T22:24:32.451Z,50.36
2022-10-23T22:27:00.262Z,49.32
2022-10-23T22:29:29.360Z,51.15
2022-10-23T22:31:58.799Z,52.50
2022-10-23T22:34:48.436Z,52.79
2022-10-23T22:37:16.187Z,50.51
2022-10-23T22:39:44.023Z,50.59
2022-10-23T22:42:11.733Z,51.04
2022-10-23T22:44:39.443Z,50.83
2022-10-23T22:47:08.565Z,51.77
2022-10-23T22:49:36.308Z,52.55
2022-10-23T22:52:04.201Z,51.98
2022-10-23T22:54:32.145Z,51.54
2022-10-23T22:56:59.977Z,52.45
2022-10-23T22:59:27.777Z,51.30
2022-10-23T23:01:56.035Z,51.59
2022-10-23T23:04:37.377Z,51.74
2022-10-23T23:07:06.064Z,50.48
2022-10-23T23:09:37.081Z,49.20
2022-10-23T23:12:05.154Z,49.65
2022-10-23T23:14:32.892Z,50.71
2022-10-23T23:17:00.676Z,50.25
2022-10-23T23:19:29.780Z,50.34
2022-10-23T23:21:57.928Z,50.57
2022-10-23T23:24:25.786Z,49.96
2022-10-23T23:26:53.600Z,49.29
2022-10-23T23:29:21.650Z,48.25
2022-10-23T23:31:49.397Z,48.12
2022-10-23T23:34:17.157Z,48.67
2022-10-23T23:36:46.320Z,49.45
2022-10-23T23:39:14.362Z,49.52
2022-10-23T23:41:42.138Z,50.26
2022-10-23T23:44:10.653Z,50.64
2022-10-23T23:46:38.421Z,50.24
2022-10-23T23:49:06.177Z,49.77
2022-10-23T23:51:33.930Z,49.71
2022-10-23T23:54:03.047Z,49.51
2022-10-23T23:56:31.928Z,48.61
2022-10-23T23:58:59.671Z,49.48
